Terminal Aerodrome Forecast
Issued by NWS Milwaukee/Sullivan, WI

Home | Current Version | Previous Version | Text Only | Print | Product List | Glossary On
Versions: 1 2 3 4 5 6 7 8 9 10 11 12 13 14 15 16 17 18 19 20 21 22 23 24 25 26 27 28 29 30 31 32 33 34 35 36 37 38 39 40 41 42 43 44 45 46
000
FTUS43 KMKX 301748
TAFMSN
TAF
KMSN 301748Z 3018/3118 04012G21KT 6SM -SHRA BR OVC010
     FM302000 04012G20KT P6SM -SHRA OVC015
     FM302100 04012G20KT P6SM OVC015
     FM302200 04013G20KT P6SM OVC035
     FM310200 05009KT P6SM BKN140
     FM310900 02008KT P6SM FEW200
     FM311500 05012G19KT P6SM FEW250=

USA.gov is the U.S. government's official web portal to all federal, state and local government web resources and services.